sensor_id;sensor_type;location;lat;lon;timestamp;pressure;altitude;pressure_sealevel;temperature;humidity
49979;BME280;35869;50.990;6.962;2023-11-21T00:01:25;100705.09;;;8.84;100.00
49979;BME280;35869;50.990;6.962;2023-11-21T00:06:25;100712.16;;;8.80;100.00
49979;BME280;35869;50.990;6.962;2023-11-21T00:11:26;100711.25;;;8.81;100.00
49979;BME280;35869;50.990;6.962;2023-11-21T00:16:26;100719.94;;;8.80;100.00
49979;BME280;35869;50.990;6.962;2023-11-21T00:21:26;100720.66;;;8.84;100.00
49979;BME280;35869;50.990;6.962;2023-11-21T00:26:26;100724.22;;;8.81;100.00
49979;BME280;35869;50.990;6.962;2023-11-21T00:31:27;100724.06;;;8.84;100.00
49979;BME280;35869;50.990;6.962;2023-11-21T00:36:27;100733.66;;;8.82;100.00
49979;BME280;35869;50.990;6.962;2023-11-21T00:41:27;100735.41;;;8.81;100.00
49979;BME280;35869;50.990;6.962;2023-11-21T00:46:28;100731.84;;;8.84;100.00
49979;BME280;35869;50.990;6.962;2023-11-21T00:51:28;100742.22;;;8.84;100.00
49979;BME280;35869;50.990;6.962;2023-11-21T00:56:28;100737.31;;;8.76;100.00
49979;BME280;35869;50.990;6.962;2023-11-21T01:01:29;100745.16;;;8.75;100.00
49979;BME280;35869;50.990;6.962;2023-11-21T01:06:29;100753.03;;;8.72;100.00
49979;BME280;35869;50.990;6.962;2023-11-21T01:11:29;100751.50;;;8.66;100.00
49979;BME280;35869;50.990;6.962;2023-11-21T01:16:30;100761.88;;;8.66;100.00
49979;BME280;35869;50.990;6.962;2023-11-21T01:21:30;100773.19;;;8.64;100.00
49979;BME280;35869;50.990;6.962;2023-11-21T01:26:30;100769.66;;;8.66;100.00
49979;BME280;35869;50.990;6.962;2023-11-21T01:31:30;100771.50;;;8.63;100.00
49979;BME280;35869;50.990;6.962;2023-11-21T01:36:35;100767.06;;;8.66;100.00
49979;BME280;35869;50.990;6.962;2023-11-21T01:41:35;100777.41;;;8.66;100.00
49979;BME280;35869;50.990;6.962;2023-11-21T01:46:38;100782.59;;;8.66;100.00
49979;BME280;35869;50.990;6.962;2023-11-21T01:51:41;100788.69;;;8.65;100.00
49979;BME280;35869;50.990;6.962;2023-11-21T01:56:44;100787.75;;;8.68;100.00
49979;BME280;35869;50.990;6.962;2023-11-21T02:01:45;100791.19;;;8.68;100.00
49979;BME280;35869;50.990;6.962;2023-11-21T02:06:46;100787.16;;;8.60;100.00
49979;BME280;35869;50.990;6.962;2023-11-21T02:11:46;100789.06;;;8.54;100.00
49979;BME280;35869;50.990;6.962;2023-11-21T02:16:46;100806.28;;;8.55;100.00
49979;BME280;35869;50.990;6.962;2023-11-21T02:21:49;100809.09;;;8.49;100.00
49979;BME280;35869;50.990;6.962;2023-11-21T02:26:50;100808.09;;;8.53;100.00
49979;BME280;35869;50.990;6.962;2023-11-21T02:31:58;100821.81;;;8.55;100.00
49979;BME280;35869;50.990;6.962;2023-11-21T02:36:58;100825.31;;;8.54;100.00
49979;BME280;35869;50.990;6.962;2023-11-21T02:41:58;100820.13;;;8.54;100.00
49979;BME280;35869;50.990;6.962;2023-11-21T02:46:59;100822.72;;;8.54;100.00
49979;BME280;35869;50.990;6.962;2023-11-21T02:51:59;100826.13;;;8.57;100.00
49979;BME280;35869;50.990;6.962;2023-11-21T02:56:59;100820.13;;;8.54;100.00
49979;BME280;35869;50.990;6.962;2023-11-21T03:01:59;100825.22;;;8.58;100.00
49979;BME280;35869;50.990;6.962;2023-11-21T03:07:00;100829.59;;;8.55;100.00
49979;BME280;35869;50.990;6.962;2023-11-21T03:12:00;100832.09;;;8.59;100.00
49979;BME280;35869;50.990;6.962;2023-11-21T03:17:00;100842.34;;;8.62;100.00
49979;BME280;35869;50.990;6.962;2023-11-21T03:22:01;100845.97;;;8.58;100.00
49979;BME280;35869;50.990;6.962;2023-11-21T03:27:01;100850.94;;;8.64;100.00
49979;BME280;35869;50.990;6.962;2023-11-21T03:32:01;100856.19;;;8.61;100.00
49979;BME280;35869;50.990;6.962;2023-11-21T03:37:02;100859.59;;;8.63;100.00
49979;BME280;35869;50.990;6.962;2023-11-21T03:42:02;100857.00;;;8.63;100.00
49979;BME280;35869;50.990;6.962;2023-11-21T03:47:02;100863.88;;;8.64;100.00
49979;BME280;35869;50.990;6.962;2023-11-21T03:52:03;100875.19;;;8.61;100.00
49979;BME280;35869;50.990;6.962;2023-11-21T03:57:04;100882.03;;;8.64;100.00
49979;BME280;35869;50.990;6.962;2023-11-21T04:02:04;100888.19;;;8.60;100.00
49979;BME280;35869;50.990;6.962;2023-11-21T04:07:05;100891.69;;;8.59;100.00
49979;BME280;35869;50.990;6.962;2023-11-21T04:12:05;100893.50;;;8.55;100.00
49979;BME280;35869;50.990;6.962;2023-11-21T04:17:06;100904.84;;;8.52;100.00
49979;BME280;35869;50.990;6.962;2023-11-21T04:22:06;100904.50;;;8.63;100.00
49979;BME280;35869;50.990;6.962;2023-11-21T04:27:06;100914.09;;;8.60;100.00
49979;BME280;35869;50.990;6.962;2023-11-21T04:32:07;100917.72;;;8.54;100.00
49979;BME280;35869;50.990;6.962;2023-11-21T04:37:07;100898.75;;;8.53;100.00
49979;BME280;35869;50.990;6.962;2023-11-21T04:42:07;100905.63;;;8.54;100.00
49979;BME280;35869;50.990;6.962;2023-11-21T04:47:10;100910.03;;;8.52;100.00
49979;BME280;35869;50.990;6.962;2023-11-21T04:52:10;100915.28;;;8.49;100.00
49979;BME280;35869;50.990;6.962;2023-11-21T04:57:11;100915.41;;;8.46;100.00
49979;BME280;35869;50.990;6.962;2023-11-21T05:02:11;100917.09;;;8.47;100.00
49979;BME280;35869;50.990;6.962;2023-11-21T05:07:11;100922.19;;;8.50;100.00
49979;BME280;35869;50.990;6.962;2023-11-21T05:12:12;100933.53;;;8.46;100.00
49979;BME280;35869;50.990;6.962;2023-11-21T05:17:13;100940.47;;;8.46;100.00
49979;BME280;35869;50.990;6.962;2023-11-21T05:22:13;100944.78;;;8.45;100.00
49979;BME280;35869;50.990;6.962;2023-11-21T05:27:15;100943.97;;;8.45;100.00
49979;BME280;35869;50.990;6.962;2023-11-21T05:32:15;100950.00;;;8.44;100.00
49979;BME280;35869;50.990;6.962;2023-11-21T05:37:16;100953.47;;;8.44;100.00
49979;BME280;35869;50.990;6.962;2023-11-21T05:42:16;100962.22;;;8.40;100.00
49979;BME280;35869;50.990;6.962;2023-11-21T05:47:16;100963.91;;;8.41;100.00
49979;BME280;35869;50.990;6.962;2023-11-21T05:52:19;100970.97;;;8.36;100.00
49979;BME280;35869;50.990;6.962;2023-11-21T05:57:19;100983.94;;;8.35;100.00
49979;BME280;35869;50.990;6.962;2023-11-21T06:02:19;100990.72;;;8.40;100.00
49979;BME280;35869;50.990;6.962;2023-11-21T06:07:20;101002.91;;;8.37;100.00
49979;BME280;35869;50.990;6.962;2023-11-21T06:12:20;101011.50;;;8.39;100.00
49979;BME280;35869;50.990;6.962;2023-11-21T06:17:20;101017.50;;;8.39;100.00
49979;BME280;35869;50.990;6.962;2023-11-21T06:22:21;101021.94;;;8.36;100.00
49979;BME280;35869;50.990;6.962;2023-11-21T06:27:24;101024.72;;;8.28;100.00
49979;BME280;35869;50.990;6.962;2023-11-21T06:32:24;101029.72;;;8.34;100.00
49979;BME280;35869;50.990;6.962;2023-11-21T06:37:26;101029.63;;;8.37;100.00
49979;BME280;35869;50.990;6.962;2023-11-21T06:42:27;101037.50;;;8.34;100.00
49979;BME280;35869;50.990;6.962;2023-11-21T06:47:27;101042.75;;;8.31;100.00
49979;BME280;35869;50.990;6.962;2023-11-21T06:52:27;101051.41;;;8.30;100.00
49979;BME280;35869;50.990;6.962;2023-11-21T06:57:36;101060.78;;;8.34;100.00
49979;BME280;35869;50.990;6.962;2023-11-21T07:02:36;101066.91;;;8.32;100.00
49979;BME280;35869;50.990;6.962;2023-11-21T07:07:44;101076.41;;;8.31;100.00
49979;BME280;35869;50.990;6.962;2023-11-21T07:12:44;101092.84;;;8.30;100.00
49979;BME280;35869;50.990;6.962;2023-11-21T07:17:44;101098.81;;;8.32;100.00
49979;BME280;35869;50.990;6.962;2023-11-21T07:22:54;101113.66;;;8.27;100.00
49979;BME280;35869;50.990;6.962;2023-11-21T07:27:59;101118.69;;;8.32;100.00
49979;BME280;35869;50.990;6.962;2023-11-21T07:33:09;101131.50;;;8.38;100.00
49979;BME280;35869;50.990;6.962;2023-11-21T07:38:10;101133.31;;;8.34;100.00
49979;BME280;35869;50.990;6.962;2023-11-21T07:43:18;101133.34;;;8.33;100.00
49979;BME280;35869;50.990;6.962;2023-11-21T07:48:19;101135.81;;;8.37;100.00
49979;BME280;35869;50.990;6.962;2023-11-21T07:53:32;101139.38;;;8.33;100.00
49979;BME280;35869;50.990;6.962;2023-11-21T07:58:35;101143.66;;;8.34;100.00
49979;BME280;35869;50.990;6.962;2023-11-21T08:03:36;101143.34;;;8.46;100.00
49979;BME280;35869;50.990;6.962;2023-11-21T08:08:36;101153.06;;;8.38;100.00
49979;BME280;35869;50.990;6.962;2023-11-21T08:13:36;101157.19;;;8.45;100.00
49979;BME280;35869;50.990;6.962;2023-11-21T08:18:37;101165.88;;;8.44;100.00
49979;BME280;35869;50.990;6.962;2023-11-21T08:23:37;101182.25;;;8.45;100.00
49979;BME280;35869;50.990;6.962;2023-11-21T08:28:37;101192.50;;;8.48;100.00
49979;BME280;35869;50.990;6.962;2023-11-21T08:33:38;101209.72;;;8.50;100.00
49979;BME280;35869;50.990;6.962;2023-11-21T08:38:40;101208.78;;;8.53;100.00
49979;BME280;35869;50.990;6.962;2023-11-21T08:43:41;101207.88;;;8.54;100.00
49979;BME280;35869;50.990;6.962;2023-11-21T08:48:41;101220.78;;;8.55;100.00
49979;BME280;35869;50.990;6.962;2023-11-21T08:53:41;101215.72;;;8.52;100.00
49979;BME280;35869;50.990;6.962;2023-11-21T08:58:45;101231.94;;;8.59;100.00
49979;BME280;35869;50.990;6.962;2023-11-21T09:03:45;101225.91;;;8.59;100.00
49979;BME280;35869;50.990;6.962;2023-11-21T09:08:46;101235.25;;;8.64;100.00
49979;BME280;35869;50.990;6.962;2023-11-21T09:13:46;101235.06;;;8.70;100.00
49979;BME280;35869;50.990;6.962;2023-11-21T09:18:46;101239.31;;;8.73;100.00
49979;BME280;35869;50.990;6.962;2023-11-21T09:23:48;101244.41;;;8.76;100.00
49979;BME280;35869;50.990;6.962;2023-11-21T09:28:48;101249.50;;;8.79;100.00
49979;BME280;35869;50.990;6.962;2023-11-21T09:33:49;101263.22;;;8.82;100.00
49979;BME280;35869;50.990;6.962;2023-11-21T09:38:50;101270.94;;;8.86;100.00
49979;BME280;35869;50.990;6.962;2023-11-21T09:43:54;101287.22;;;8.89;100.00
49979;BME280;35869;50.990;6.962;2023-11-21T09:48:59;101287.16;;;8.92;100.00
49979;BME280;35869;50.990;6.962;2023-11-21T09:54:01;101287.22;;;8.89;100.00
49979;BME280;35869;50.990;6.962;2023-11-21T09:59:03;101292.34;;;8.92;100.00
49979;BME280;35869;50.990;6.962;2023-11-21T10:04:04;101287.88;;;8.97;100.00
49979;BME280;35869;50.990;6.962;2023-11-21T10:09:04;101289.41;;;9.04;100.00
49979;BME280;35869;50.990;6.962;2023-11-21T10:14:06;101292.72;;;9.10;100.00
49979;BME280;35869;50.990;6.962;2023-11-21T10:19:10;101286.63;;;9.11;100.00
49979;BME280;35869;50.990;6.962;2023-11-21T10:24:11;101296.94;;;9.12;100.00
49979;BME280;35869;50.990;6.962;2023-11-21T10:29:13;101296.91;;;9.14;100.00
49979;BME280;35869;50.990;6.962;2023-11-21T10:34:19;101294.28;;;9.15;100.00
49979;BME280;35869;50.990;6.962;2023-11-21T10:39:20;101292.38;;;9.20;100.00
49979;BME280;35869;50.990;6.962;2023-11-21T10:44:21;101294.97;;;9.20;100.00
49979;BME280;35869;50.990;6.962;2023-11-21T10:49:22;101299.22;;;9.23;100.00
49979;BME280;35869;50.990;6.962;2023-11-21T10:54:24;101307.81;;;9.25;100.00
49979;BME280;35869;50.990;6.962;2023-11-21T10:59:29;101303.28;;;9.31;100.00
49979;BME280;35869;50.990;6.962;2023-11-21T11:04:30;101313.63;;;9.33;100.00
49979;BME280;35869;50.990;6.962;2023-11-21T11:09:33;101317.81;;;9.37;100.00
49979;BME280;35869;50.990;6.962;2023-11-21T11:14:34;101322.13;;;9.38;100.00
49979;BME280;35869;50.990;6.962;2023-11-21T11:19:35;101327.34;;;9.37;100.00
49979;BME280;35869;50.990;6.962;2023-11-21T11:25:12;101333.38;;;9.39;100.00
49979;BME280;35869;50.990;6.962;2023-11-21T11:35:38;101330.66;;;9.42;100.00
49979;BME280;35869;50.990;6.962;2023-11-21T11:40:48;101330.59;;;9.43;100.00
49979;BME280;35869;50.990;6.962;2023-11-21T11:45:55;101326.31;;;9.42;100.00
49979;BME280;35869;50.990;6.962;2023-11-21T11:51:12;101326.19;;;9.47;100.00
49979;BME280;35869;50.990;6.962;2023-11-21T11:56:22;101339.25;;;9.44;100.00
49979;BME280;35869;50.990;6.962;2023-11-21T12:01:24;101339.97;;;9.49;100.00
49979;BME280;35869;50.990;6.962;2023-11-21T12:06:33;101342.53;;;9.50;100.00
49979;BME280;35869;50.990;6.962;2023-11-21T12:11:46;101342.53;;;9.50;100.00
49979;BME280;35869;50.990;6.962;2023-11-21T12:16:46;101352.13;;;9.47;100.00
49979;BME280;35869;50.990;6.962;2023-11-21T12:21:47;101355.50;;;9.50;100.00
49979;BME280;35869;50.990;6.962;2023-11-21T12:26:48;101361.31;;;9.58;100.00
49979;BME280;35869;50.990;6.962;2023-11-21T12:31:49;101366.50;;;9.58;100.00
49979;BME280;35869;50.990;6.962;2023-11-21T12:36:49;101366.41;;;9.61;100.00
49979;BME280;35869;50.990;6.962;2023-11-21T12:41:49;101370.72;;;9.63;100.00
49979;BME280;35869;50.990;6.962;2023-11-21T12:46:50;101374.09;;;9.65;100.00
49979;BME280;35869;50.990;6.962;2023-11-21T12:51:50;101371.50;;;9.65;100.00
49979;BME280;35869;50.990;6.962;2023-11-21T12:56:50;101371.50;;;9.65;100.00
49979;BME280;35869;50.990;6.962;2023-11-21T13:01:51;101380.94;;;9.67;100.00
49979;BME280;35869;50.990;6.962;2023-11-21T13:06:51;101378.31;;;9.69;100.00
49979;BME280;35869;50.990;6.962;2023-11-21T13:12:00;101378.97;;;9.75;100.00
49979;BME280;35869;50.990;6.962;2023-11-21T13:17:01;101383.22;;;9.78;100.00
49979;BME280;35869;50.990;6.962;2023-11-21T13:22:01;101391.72;;;9.83;100.00
49979;BME280;35869;50.990;6.962;2023-11-21T13:27:02;101396.00;;;9.84;100.00
49979;BME280;35869;50.990;6.962;2023-11-21T13:32:02;101397.66;;;9.86;100.00
49979;BME280;35869;50.990;6.962;2023-11-21T13:37:02;101404.63;;;9.86;100.00
49979;BME280;35869;50.990;6.962;2023-11-21T13:42:02;101409.63;;;9.92;100.00
49979;BME280;35869;50.990;6.962;2023-11-21T13:47:03;101413.97;;;9.90;100.00
49979;BME280;35869;50.990;6.962;2023-11-21T13:52:04;101422.47;;;9.97;100.00
49979;BME280;35869;50.990;6.962;2023-11-21T13:57:11;101426.03;;;9.93;100.00
49979;BME280;35869;50.990;6.962;2023-11-21T14:02:22;101427.78;;;9.92;100.00
49979;BME280;35869;50.990;6.962;2023-11-21T14:07:24;101430.25;;;9.97;100.00
49979;BME280;35869;50.990;6.962;2023-11-21T14:12:25;101438.97;;;9.94;100.00
49979;BME280;35869;50.990;6.962;2023-11-21T14:17:25;101432.84;;;9.97;100.00
49979;BME280;35869;50.990;6.962;2023-11-21T14:22:26;101433.78;;;9.94;100.00
49979;BME280;35869;50.990;6.962;2023-11-21T14:27:33;101440.66;;;9.97;100.00
49979;BME280;35869;50.990;6.962;2023-11-21T14:32:33;101445.00;;;9.95;100.00
49979;BME280;35869;50.990;6.962;2023-11-21T14:37:33;101450.13;;;9.98;100.00
49979;BME280;35869;50.990;6.962;2023-11-21T14:42:33;101455.34;;;9.96;100.00
49979;BME280;35869;50.990;6.962;2023-11-21T14:47:34;101455.28;;;9.99;100.00
49979;BME280;35869;50.990;6.962;2023-11-21T14:52:34;101460.47;;;9.99;100.00
49979;BME280;35869;50.990;6.962;2023-11-21T14:57:34;101462.28;;;9.97;100.00
49979;BME280;35869;50.990;6.962;2023-11-21T15:02:34;101477.00;;;9.97;100.00
49979;BME280;35869;50.990;6.962;2023-11-21T15:07:35;101483.97;;;9.95;100.00
49979;BME280;35869;50.990;6.962;2023-11-21T15:12:35;101487.47;;;9.94;100.00
49979;BME280;35869;50.990;6.962;2023-11-21T15:17:36;101499.53;;;9.95;100.00
49979;BME280;35869;50.990;6.962;2023-11-21T15:22:36;101498.69;;;9.94;100.00
49979;BME280;35869;50.990;6.962;2023-11-21T15:27:39;101517.81;;;9.92;100.00
49979;BME280;35869;50.990;6.962;2023-11-21T15:32:39;101531.78;;;9.87;100.00
49979;BME280;35869;50.990;6.962;2023-11-21T15:37:46;101524.00;;;9.87;100.00
49979;BME280;35869;50.990;6.962;2023-11-21T15:42:46;101540.38;;;9.89;100.00
49979;BME280;35869;50.990;6.962;2023-11-21T15:47:47;101545.63;;;9.88;100.00
49979;BME280;35869;50.990;6.962;2023-11-21T15:52:47;101538.72;;;9.87;100.00
49979;BME280;35869;50.990;6.962;2023-11-21T15:57:47;101544.75;;;9.87;100.00
49979;BME280;35869;50.990;6.962;2023-11-21T16:02:48;101553.53;;;9.83;100.00
49979;BME280;35869;50.990;6.962;2023-11-21T16:07:48;101561.47;;;9.77;100.00
49979;BME280;35869;50.990;6.962;2023-11-21T16:12:48;101563.34;;;9.74;100.00
49979;BME280;35869;50.990;6.962;2023-11-21T16:17:48;101567.56;;;9.76;100.00
49979;BME280;35869;50.990;6.962;2023-11-21T16:22:49;101588.28;;;9.79;100.00
49979;BME280;35869;50.990;6.962;2023-11-21T16:27:49;101590.88;;;9.78;100.00
49979;BME280;35869;50.990;6.962;2023-11-21T16:32:49;101603.91;;;9.76;100.00
49979;BME280;35869;50.990;6.962;2023-11-21T16:37:49;101606.63;;;9.73;100.00
49979;BME280;35869;50.990;6.962;2023-11-21T16:42:56;101613.56;;;9.71;100.00
49979;BME280;35869;50.990;6.962;2023-11-21T16:47:56;101623.16;;;9.69;100.00
49979;BME280;35869;50.990;6.962;2023-11-21T16:52:56;101632.59;;;9.72;100.00
49979;BME280;35869;50.990;6.962;2023-11-21T16:57:57;101644.66;;;9.73;100.00
49979;BME280;35869;50.990;6.962;2023-11-21T17:02:57;101652.88;;;9.57;100.00
49979;BME280;35869;50.990;6.962;2023-11-21T17:08:02;101669.03;;;9.69;100.00
49979;BME280;35869;50.990;6.962;2023-11-21T17:13:03;101675.34;;;9.58;100.00
49979;BME280;35869;50.990;6.962;2023-11-21T17:18:03;101681.41;;;9.57;100.00
49979;BME280;35869;50.990;6.962;2023-11-21T17:23:04;101684.91;;;9.55;100.00
49979;BME280;35869;50.990;6.962;2023-11-21T17:28:04;101703.25;;;9.49;100.00
49979;BME280;35869;50.990;6.962;2023-11-21T17:33:04;101711.22;;;9.41;100.00
49979;BME280;35869;50.990;6.962;2023-11-21T17:38:05;101726.78;;;9.41;100.00
49979;BME280;35869;50.990;6.962;2023-11-21T17:43:05;101732.91;;;9.39;100.00
49979;BME280;35869;50.990;6.962;2023-11-21T17:48:05;101741.41;;;9.44;100.00
49979;BME280;35869;50.990;6.962;2023-11-21T17:53:06;101756.41;;;9.31;100.00
49979;BME280;35869;50.990;6.962;2023-11-21T17:58:07;101762.63;;;9.24;100.00
49979;BME280;35869;50.990;6.962;2023-11-21T18:03:07;101774.97;;;9.13;100.00
49979;BME280;35869;50.990;6.962;2023-11-21T18:08:08;101780.38;;;9.02;100.00
49979;BME280;35869;50.990;6.962;2023-11-21T18:13:08;101789.19;;;8.95;100.00
49979;BME280;35869;50.990;6.962;2023-11-21T18:18:08;101804.78;;;8.93;100.00
49979;BME280;35869;50.990;6.962;2023-11-21T18:23:08;101818.56;;;8.95;100.00
49979;BME280;35869;50.990;6.962;2023-11-21T18:28:09;101813.44;;;8.91;100.00
49979;BME280;35869;50.990;6.962;2023-11-21T18:33:09;101829.00;;;8.91;100.00
49979;BME280;35869;50.990;6.962;2023-11-21T18:38:12;101844.03;;;8.75;100.00
49979;BME280;35869;50.990;6.962;2023-11-21T18:43:12;101864.97;;;8.63;100.00
49979;BME280;35869;50.990;6.962;2023-11-21T18:48:13;101883.81;;;8.18;100.00
49979;BME280;35869;50.990;6.962;2023-11-21T18:53:13;101888.75;;;8.32;100.00
49979;BME280;35869;50.990;6.962;2023-11-21T18:58:20;101894.34;;;8.09;100.00
49979;BME280;35869;50.990;6.962;2023-11-21T19:03:21;101903.19;;;8.51;100.00
49979;BME280;35869;50.990;6.962;2023-11-21T19:08:21;101908.56;;;8.38;100.00
49979;BME280;35869;50.990;6.962;2023-11-21T19:13:21;101923.31;;;8.31;100.00
49979;BME280;35869;50.990;6.962;2023-11-21T19:18:21;101934.38;;;8.44;100.00
49979;BME280;35869;50.990;6.962;2023-11-21T19:23:22;101949.22;;;8.31;100.00
49979;BME280;35869;50.990;6.962;2023-11-21T19:28:22;101950.31;;;8.16;100.00
49979;BME280;35869;50.990;6.962;2023-11-21T19:33:22;101959.94;;;8.07;100.00
49979;BME280;35869;50.990;6.962;2023-11-21T19:38:23;101961.19;;;7.78;100.00
49979;BME280;35869;50.990;6.962;2023-11-21T19:43:23;101967.78;;;8.02;100.00
49979;BME280;35869;50.990;6.962;2023-11-21T19:48:23;101973.25;;;7.79;100.00
49979;BME280;35869;50.990;6.962;2023-11-21T19:53:23;101970.88;;;7.61;100.00
49979;BME280;35869;50.990;6.962;2023-11-21T19:58:24;101970.06;;;7.56;100.00
49979;BME280;35869;50.990;6.962;2023-11-21T20:03:29;101973.44;;;7.64;100.00
49979;BME280;35869;50.990;6.962;2023-11-21T20:08:30;101981.38;;;7.48;100.00
49979;BME280;35869;50.990;6.962;2023-11-21T20:13:30;101995.22;;;7.44;100.00
49979;BME280;35869;50.990;6.962;2023-11-21T20:18:31;102012.50;;;7.41;100.00
49979;BME280;35869;50.990;6.962;2023-11-21T20:23:31;102023.66;;;7.46;100.00
49979;BME280;35869;50.990;6.962;2023-11-21T20:28:32;102037.41;;;7.49;100.00
49979;BME280;35869;50.990;6.962;2023-11-21T20:33:32;102040.00;;;7.51;100.00
49979;BME280;35869;50.990;6.962;2023-11-21T20:38:32;102046.03;;;7.52;100.00
49979;BME280;35869;50.990;6.962;2023-11-21T20:43:32;102057.41;;;7.34;100.00
49979;BME280;35869;50.990;6.962;2023-11-21T20:48:36;102072.22;;;7.18;100.00
49979;BME280;35869;50.990;6.962;2023-11-21T20:53:37;102074.84;;;7.12;100.00
49979;BME280;35869;50.990;6.962;2023-11-21T20:58:37;102093.72;;;7.20;100.00
49979;BME280;35869;50.990;6.962;2023-11-21T21:03:37;102087.66;;;7.26;100.00
49979;BME280;35869;50.990;6.962;2023-11-21T21:08:38;102098.13;;;7.09;100.00
49979;BME280;35869;50.990;6.962;2023-11-21T21:13:39;102099.81;;;7.16;100.00
49979;BME280;35869;50.990;6.962;2023-11-21T21:18:39;102101.56;;;7.12;100.00
49979;BME280;35869;50.990;6.962;2023-11-21T21:23:40;102097.25;;;7.11;100.00
49979;BME280;35869;50.990;6.962;2023-11-21T21:28:40;102099.78;;;7.19;100.00
49979;BME280;35869;50.990;6.962;2023-11-21T21:33:41;102113.63;;;7.12;100.00
49979;BME280;35869;50.990;6.962;2023-11-21T21:38:41;102110.09;;;7.22;100.00
49979;BME280;35869;50.990;6.962;2023-11-21T21:43:41;102108.47;;;7.09;100.00
49979;BME280;35869;50.990;6.962;2023-11-21T21:48:42;102108.59;;;6.93;100.00
49979;BME280;35869;50.990;6.962;2023-11-21T21:53:44;102117.13;;;7.02;100.00
49979;BME280;35869;50.990;6.962;2023-11-21T21:58:44;102121.47;;;6.97;100.00
49979;BME280;35869;50.990;6.962;2023-11-21T22:03:45;102144.75;;;6.95;100.00
49979;BME280;35869;50.990;6.962;2023-11-21T22:08:45;102164.59;;;6.93;100.00
49979;BME280;35869;50.990;6.962;2023-11-21T22:13:46;102179.25;;;6.89;100.00
49979;BME280;35869;50.990;6.962;2023-11-21T22:18:46;102195.63;;;6.88;100.00
49979;BME280;35869;50.990;6.962;2023-11-21T22:23:46;102200.78;;;6.91;100.00
49979;BME280;35869;50.990;6.962;2023-11-21T22:28:47;102202.44;;;7.02;100.00
49979;BME280;35869;50.990;6.962;2023-11-21T22:33:47;102190.44;;;6.91;100.00
49979;BME280;35869;50.990;6.962;2023-11-21T22:38:47;102193.91;;;6.89;100.00
49979;BME280;35869;50.990;6.962;2023-11-21T22:43:47;102194.72;;;6.95;100.00
49979;BME280;35869;50.990;6.962;2023-11-21T22:48:48;102197.38;;;6.86;100.00
49979;BME280;35869;50.990;6.962;2023-11-21T22:53:48;102205.09;;;6.92;100.00
49979;BME280;35869;50.990;6.962;2023-11-21T22:58:48;102211.91;;;7.06;100.00
49979;BME280;35869;50.990;6.962;2023-11-21T23:03:48;102217.13;;;7.00;100.00
49979;BME280;35869;50.990;6.962;2023-11-21T23:08:49;102230.91;;;6.95;100.00
49979;BME280;35869;50.990;6.962;2023-11-21T23:13:49;102232.63;;;6.97;100.00
49979;BME280;35869;50.990;6.962;2023-11-21T23:18:49;102224.88;;;6.98;100.00
49979;BME280;35869;50.990;6.962;2023-11-21T23:23:49;102226.63;;;6.90;100.00
49979;BME280;35869;50.990;6.962;2023-11-21T23:28:50;102236.13;;;6.89;100.00
49979;BME280;35869;50.990;6.962;2023-11-21T23:33:50;102231.78;;;6.91;100.00
49979;BME280;35869;50.990;6.962;2023-11-21T23:38:50;102231.00;;;6.80;100.00
49979;BME280;35869;50.990;6.962;2023-11-21T23:43:50;102239.66;;;6.67;100.00
49979;BME280;35869;50.990;6.962;2023-11-21T23:48:51;102246.59;;;6.54;100.00
49979;BME280;35869;50.990;6.962;2023-11-21T23:53:51;102257.75;;;6.59;100.00
49979;BME280;35869;50.990;6.962;2023-11-21T23:58:51;102265.50;;;6.61;100.00
